Date,TemperatureHighF,TemperatureAvgF,TemperatureLowF,DewpointHighF,DewpointAvgF,DewpointLowF,HumidityHigh,HumidityAvg,HumidityLow,PressureMaxIn,PressureMinIn,WindSpeedMaxMPH,WindSpeedAvgMPH,GustSpeedMaxMPH,PrecipitationSumIn
2014-1-1,42.5,33.9,26.0,28.9,23.8,19.1,86,67,46,29.99,29.77,5,1,5,0.00
2014-1-2,45.8,36.3,14.8,45.8,35.5,13.2,100,97,78,29.78,29.41,18,3,19,0.28
2014-1-3,20.0,13.8,6.2,13.9,8.9,4.9,100,82,51,29.95,29.59,24,4,24,0.00
2014-1-4,43.9,30.3,16.4,41.2,23.1,7.3,97,75,39,29.95,29.83,14,2,14,0.00
2014-1-5,53.5,48.9,41.8,50.6,46.1,39.6,100,90,75,29.83,29.41,21,3,24,0.13
2014-1-6,50.1,19.3,-3.2,50.1,17.4,-6.6,100,92,76,29.78,29.39,22,3,22,0.19
2014-1-7,14.7,2.5,-7.1,10.0,-0.2,-8.1,98,88,72,29.97,29.77,7,1,7,0.00
2014-1-8,41.2,24.9,9.5,23.5,16.5,7.7,98,72,44,30.07,29.96,6,1,6,0.00
2014-1-9,51.9,35.4,23.8,42.2,27.7,16.5,100,75,30,30.10,29.99,11,1,12,0.00
2014-1-10,52.2,44.1,36.2,52.2,44.1,36.2,100,100,100,30.03,29.71,6,1,6,0.24
2014-1-11,60.2,50.7,37.4,59.2,47.4,29.3,100,89,55,29.71,29.39,28,4,29,1.28
2014-1-12,48.9,38.9,32.7,33.9,29.2,26.9,84,68,49,29.84,29.57,7,2,7,0.00
2014-1-13,50.7,42.6,35.9,41.6,32.3,24.3,100,69,37,29.80,29.60,15,1,15,0.08
2014-1-14,47.2,40.1,35.1,41.7,35.4,24.9,100,85,43,29.67,29.50,8,2,8,0.12
2014-1-15,36.7,29.8,21.2,31.9,28.4,20.9,100,95,72,29.67,29.58,10,2,11,0.02
2014-1-16,36.0,30.4,15.5,24.0,20.2,15.5,100,66,44,29.63,29.54,10,2,10,0.02
2014-1-17,40.4,31.1,21.0,24.8,20.1,12.2,83,64,38,29.61,29.48,17,3,19,0.01
2014-1-18,32.7,23.8,13.2,17.1,11.6,6.7,87,61,39,29.61,29.56,23,4,23,0.00
2014-1-19,41.7,34.1,29.9,27.3,22.9,16.5,86,64,45,29.69,29.54,14,3,14,0.00
2014-1-20,53.4,41.8,31.6,28.5,21.9,10.7,61,45,33,29.65,29.55,12,3,14,0.00
2014-1-21,43.1,31.1,9.0,30.4,24.4,8.7,100,78,55,29.55,29.36,16,4,16,0.00
2014-1-22,22.7,11.9,3.1,9.9,6.9,3.1,100,83,45,29.66,29.54,12,2,12,0.00
2014-1-23,24.5,13.9,2.4,13.8,6.1,-2.0,86,71,56,29.97,29.66,11,2,12,0.00
2014-1-24,19.8,7.0,-4.1,2.9,-1.7,-4.9,97,71,37,30.04,29.72,10,1,10,0.00
2014-1-25,31.9,24.8,15.4,26.0,12.3,-8.1,98,61,25,29.72,29.37,26,5,29,0.00
2014-1-26,45.7,36.3,23.6,31.2,22.9,9.1,75,58,43,29.57,29.50,18,3,19,0.00
2014-1-27,44.4,34.6,15.9,38.2,28.3,5.8,100,77,60,29.75,29.54,14,2,14,0.00
2014-1-28,15.9,13.4,10.8,15.9,9.3,4.3,100,85,64,29.76,29.71,10,2,11,0.00
2014-1-29,21.2,11.0,3.1,10.7,5.3,0.7,100,80,41,29.85,29.73,10,1,10,0.00
2014-1-30,39.1,19.9,5.0,16.4,9.4,2.8,91,66,29,29.86,29.74,6,1,6,0.01
2014-1-31,50.5,38.2,25.3,23.5,15.7,6.9,61,40,27,29.84,29.76,6,2,7,0.10
2014-2-1,59.4,45.2,30.6,48.7,33.8,17.1,97,65,36,29.85,29.76,11,2,12,0.00
2014-2-2,57.9,48.5,39.9,57.3,48.0,38.4,100,98,89,29.82,29.65,18,2,20,0.27
2014-2-3,59.7,45.7,34.0,59.6,45.6,34.0,100,100,92,29.86,29.55,22,2,24,1.50
2014-2-4,57.8,39.9,32.5,57.6,39.9,32.5,100,100,97,29.93,29.64,21,2,21,0.20
2014-2-5,57.0,44.0,21.6,56.6,40.4,21.6,100,88,53,29.82,29.52,33,5,33,0.24
2014-2-6,31.7,24.3,18.7,26.7,23.0,18.6,100,95,74,29.90,29.82,7,1,7,0.00
2014-2-7,43.7,30.5,21.8,31.6,27.1,21.8,100,89,58,29.93,29.84,8,1,9,0.00
2014-2-8,40.9,34.6,28.6,37.8,33.2,28.6,100,95,73,29.87,29.77,11,1,11,0.00
2014-2-9,46.4,35.6,29.2,41.6,33.6,29.2,100,93,68,29.81,29.67,15,2,17,0.00
2014-2-10,32.2,29.5,26.8,32.1,29.5,26.8,100,100,100,29.82,29.70,5,0,5,0.00
2014-2-11,30.5,28.1,26.8,30.5,28.1,26.8,100,100,100,29.89,29.78,0,0,0,0.00
2014-2-12,27.4,23.5,21.0,27.4,23.5,20.9,100,100,100,29.88,29.46,0,0,0,0.00
2014-2-13,31.7,26.8,23.0,31.6,26.6,23.0,100,99,87,29.46,29.33,0,0,0,0.00
2014-2-14,49.9,36.2,25.1,35.2,27.9,24.0,100,74,43,29.52,29.35,15,1,15,0.51
2014-2-15,33.9,27.8,22.7,33.9,24.4,17.6,100,87,63,29.73,29.30,14,2,14,0.04
2014-2-16,47.6,37.3,24.5,31.6,27.5,15.7,100,69,49,29.82,29.66,18,3,18,0.00
2014-2-17,51.2,38.4,27.7,41.5,32.9,27.4,100,82,52,29.89,29.76,11,1,11,0.07
2014-2-18,59.1,44.8,32.7,43.9,32.7,18.3,100,69,21,29.91,29.75,10,2,10,0.00
2014-2-19,61.2,53.0,45.7,55.5,48.9,43.2,100,87,58,29.82,29.65,15,3,16,0.53
2014-2-20,65.0,57.5,47.7,55.7,52.2,47.6,100,83,60,29.82,29.62,15,2,18,0.00
2014-2-21,61.4,48.3,36.0,57.4,36.9,19.1,100,68,28,29.77,29.52,26,3,27,0.88
2014-2-22,59.3,44.1,34.5,28.5,22.8,14.0,75,46,17,29.87,29.76,8,1,11,0.00
2014-2-23,62.8,50.0,40.8,35.3,29.0,17.9,64,45,30,29.79,29.65,14,2,14,0.00
2014-2-24,47.9,38.9,33.3,36.6,30.5,21.9,100,74,41,29.82,29.70,10,2,10,0.00
2014-2-25,50.1,40.6,30.9,34.4,26.4,22.4,75,57,42,29.77,29.63,12,2,13,0.00
2014-2-26,35.6,28.5,20.9,24.1,21.1,16.3,85,73,58,29.64,29.48,11,2,12,0.00
2014-2-27,42.9,27.7,14.9,16.9,11.9,6.8,100,57,26,29.64,29.49,10,2,10,0.00
2014-2-28,47.3,32.6,17.8,19.9,15.4,9.7,79,50,31,29.85,29.64,8,1,8,0.00
2014-3-1,56.0,41.5,30.4,40.1,29.2,18.7,86,62,47,29.92,29.83,11,2,11,0.00
2014-3-2,62.7,52.2,40.2,51.6,46.7,38.6,100,82,64,29.90,29.65,15,2,15,0.00
2014-3-3,55.7,39.6,27.2,51.5,38.5,27.2,100,96,78,29.80,29.50,17,2,17,0.62
2014-3-4,41.5,33.0,26.1,40.9,32.7,26.1,100,99,82,29.83,29.74,6,1,6,0.00
2014-3-5,57.7,40.0,29.3,41.3,31.8,26.4,100,77,35,29.85,29.73,7,1,7,0.00
2014-3-6,39.1,33.9,29.6,33.1,24.9,16.1,100,72,39,29.88,29.70,6,1,6,0.00
2014-3-7,50.7,38.5,31.0,44.0,37.2,31.0,100,95,74,29.74,29.64,7,1,7,0.48
2014-3-8,61.0,45.8,34.2,43.7,35.9,31.6,100,73,34,29.81,29.71,11,2,11,0.00
2014-3-9,59.1,47.5,39.2,42.7,36.6,29.0,98,68,42,29.85,29.77,12,2,13,0.00
2014-3-10,65.7,49.8,38.1,43.3,33.4,25.0,84,55,28,29.81,29.64,10,2,11,0.00
2014-3-11,71.5,55.6,42.0,45.6,38.8,33.0,81,55,30,29.65,29.51,14,2,14,0.00
2014-3-12,61.0,49.8,26.6,56.8,46.0,21.2,100,87,61,29.53,29.21,15,4,15,0.03
2014-3-13,36.6,28.9,22.7,23.2,13.2,7.3,98,54,30,29.86,29.53,15,3,17,0.00
2014-3-14,57.7,41.4,24.4,29.0,21.1,10.8,75,46,28,29.91,29.76,16,2,16,0.00
2014-3-15,60.5,50.6,41.9,39.3,33.4,25.3,70,52,36,29.81,29.75,20,3,22,0.00
2014-3-16,47.9,44.7,40.2,47.9,41.6,32.1,100,90,57,29.77,29.41,4,0,5,0.45
2014-3-17,40.4,37.1,32.5,40.4,37.1,32.5,100,100,100,29.53,29.40,7,2,7,0.29
2014-3-20,53.3,47.4,39.1,27.4,23.3,19.9,62,39,28,29.80,29.74,10,2,11,0.00
2014-3-21,62.4,46.5,31.1,31.9,25.1,21.0,78,46,22,29.85,29.74,12,2,12,0.00
2014-3-22,63.5,54.5,47.2,43.5,36.2,25.9,72,50,40,29.78,29.72,15,3,15,0.00
2014-3-23,51.4,41.5,32.5,45.4,38.9,26.3,100,91,72,29.84,29.68,16,2,17,0.38
2014-3-24,51.4,36.8,24.6,27.4,24.6,15.6,100,64,35,29.86,29.69,12,2,13,0.00
2014-3-25,36.1,28.9,20.8,32.3,26.1,11.9,100,90,60,29.73,29.54,17,2,17,0.05
2014-3-26,41.2,28.2,16.3,22.3,14.9,9.9,78,58,37,29.90,29.73,15,2,15,0.03
2014-3-27,57.4,40.4,26.3,32.3,22.0,15.5,77,50,26,29.98,29.86,11,2,11,0.00
2014-3-28,55.4,50.5,45.4,55.3,49.1,31.9,100,95,57,29.90,29.78,12,2,12,0.03
2014-3-29,58.1,49.3,33.3,58.1,49.3,33.1,100,100,96,29.81,29.44,12,2,12,0.11
2014-3-30,48.6,37.5,29.7,33.1,29.1,23.8,100,75,42,29.82,29.61,21,4,21,0.06
2014-3-31,71.1,50.4,32.5,34.8,27.8,21.0,74,45,20,29.91,29.80,6,2,7,0.00
2014-4-1,73.7,60.6,47.6,44.4,35.9,26.4,61,40,27,29.89,29.80,10,2,10,0.00
2014-4-2,77.6,64.1,53.2,46.4,36.7,28.2,55,36,27,29.89,29.79,12,2,12,0.00
2014-4-3,79.8,66.8,58.8,55.8,47.0,29.1,83,52,29,29.86,29.69,17,2,18,0.00
2014-4-4,69.0,60.7,54.0,60.6,52.7,46.6,100,75,45,29.72,29.57,20,3,20,0.00
2014-4-5,59.2,47.5,36.8,49.6,39.0,34.1,100,75,42,29.80,29.66,11,2,12,0.00
2014-4-6,60.4,48.4,40.7,45.8,37.8,32.8,100,68,42,29.84,29.70,8,1,9,0.05
2014-4-7,60.7,49.3,39.7,60.7,49.2,39.7,100,99,85,29.74,29.41,27,2,27,1.73
2014-4-8,55.2,44.7,40.1,54.4,41.3,36.6,100,88,69,29.53,29.43,16,3,16,0.00
2014-4-9,55.2,45.7,39.9,43.6,36.8,28.7,100,75,38,29.86,29.53,12,2,12,0.01
2014-4-10,68.5,52.0,35.9,39.5,35.8,32.6,95,58,30,29.96,29.86,11,2,11,0.00
2014-4-11,70.3,59.2,49.8,43.9,38.5,33.0,64,47,30,29.95,29.83,12,2,13,0.00
2014-4-12,74.0,61.3,50.6,50.4,46.9,40.3,93,61,37,29.97,29.85,14,2,14,0.00
2014-4-13,75.8,64.2,56.2,55.3,52.9,50.0,88,68,41,29.92,29.80,10,2,10,0.00
2014-4-14,62.9,59.5,56.0,61.5,57.2,53.9,100,92,81,29.80,29.58,11,2,11,0.08
2014-4-15,58.3,42.1,27.5,58.3,41.8,24.4,100,99,86,29.76,29.43,17,4,17,0.56
2014-4-16,57.4,39.5,23.3,29.8,24.7,17.9,100,61,28,30.01,29.76,12,2,13,0.00
2014-4-17,62.1,44.1,30.3,34.0,29.5,25.3,96,60,29,30.10,30.00,15,2,16,0.00
2014-4-18,51.2,44.2,38.7,48.2,37.2,29.8,100,77,59,30.07,29.90,5,0,5,0.20
2014-4-19,50.4,45.6,42.6,50.4,45.6,42.6,100,100,100,29.95,29.83,5,0,5,0.44
2014-4-20,68.8,52.4,40.5,48.1,41.7,36.0,100,72,34,29.98,29.90,12,1,12,0.01
2014-4-21,72.2,56.9,41.5,47.7,41.7,34.7,89,58,35,29.94,29.74,8,2,9,0.00
2014-4-22,61.4,56.7,52.9,60.6,53.1,44.8,100,88,63,29.74,29.57,7,1,8,0.07
2014-4-23,65.6,54.3,44.3,55.4,37.1,24.1,100,57,22,29.78,29.61,11,2,12,0.00
2014-4-24,73.0,56.6,41.3,42.7,36.6,31.9,75,50,26,29.82,29.70,10,2,10,0.00
2014-4-25,68.3,59.9,51.7,58.3,50.0,42.8,96,70,49,29.74,29.56,24,3,27,0.00
2014-4-26,77.0,60.1,46.2,50.5,42.9,35.3,100,59,26,29.81,29.72,11,1,11,0.00
2014-4-27,80.0,65.4,51.4,61.7,47.6,39.2,100,55,24,29.81,29.70,11,1,11,0.00
2014-4-28,76.8,65.9,56.3,65.3,58.0,52.6,100,79,44,29.78,29.62,16,2,16,0.12
2014-4-29,70.6,63.9,56.3,63.2,60.1,56.3,100,88,65,29.71,29.55,24,2,24,1.35
2014-4-30,70.2,63.9,58.1,64.4,59.3,54.4,100,86,59,29.72,29.62,24,2,24,0.02
2014-5-1,65.3,56.6,46.4,57.6,45.7,32.1,100,71,30,29.70,29.63,12,3,13,0.00
2014-5-2,64.8,52.1,42.6,42.5,38.1,31.5,86,61,31,29.72,29.62,12,2,12,0.00
2014-5-3,68.0,54.3,40.5,43.5,41.2,38.3,100,64,36,29.78,29.68,14,2,14,0.00
2014-5-4,76.6,64.0,52.2,48.5,44.5,40.8,68,50,30,29.83,29.76,17,3,17,0.00
2014-5-5,80.8,69.5,60.1,52.3,48.1,40.5,67,48,25,29.82,29.70,14,3,14,0.00
2014-5-6,82.8,69.8,58.5,52.1,48.1,36.8,69,49,20,29.81,29.71,10,2,11,0.00
2014-5-7,82.5,67.8,53.3,55.6,49.5,43.3,97,56,27,29.93,29.81,10,1,10,0.00
2014-5-8,80.4,68.3,54.8,57.5,51.7,45.7,91,57,36,30.00,29.91,11,2,11,0.00
2014-5-9,70.8,64.9,57.1,62.6,57.2,52.3,100,77,61,29.95,29.86,14,2,17,0.28
2014-5-10,68.4,61.2,56.6,65.2,60.4,56.4,100,97,76,29.91,29.81,14,1,14,0.08
2014-5-11,79.3,64.6,50.8,65.4,58.7,50.8,100,84,50,29.97,29.88,12,1,13,0.00
2014-5-12,78.4,65.3,55.8,71.7,63.2,55.8,100,94,59,30.00,29.93,8,1,8,0.10
2014-5-13,75.3,65.4,57.6,73.5,63.5,53.8,100,94,71,29.98,29.91,7,0,7,0.00
2014-5-14,78.3,66.0,57.3,66.8,59.5,50.2,100,83,40,29.96,29.77,11,1,11,0.29
2014-5-15,65.9,55.8,44.2,65.9,53.0,44.1,100,91,77,29.77,29.68,12,1,12,1.22
2014-5-16,54.9,45.2,37.6,46.7,41.5,36.2,100,88,56,29.84,29.72,12,2,13,0.02
2014-5-17,55.0,46.7,36.2,50.3,43.1,36.2,100,88,59,29.93,29.82,11,2,11,0.00
2014-5-18,59.0,49.5,43.6,57.9,49.4,43.6,100,99,91,29.95,29.90,6,1,6,0.07
2014-5-19,68.8,53.2,40.0,56.4,48.7,39.9,100,87,50,30.01,29.93,7,1,7,0.01
2014-5-20,74.0,61.4,47.9,63.2,54.4,47.9,100,81,51,30.01,29.90,11,2,11,0.00
2014-5-21,77.9,67.3,57.7,63.5,57.7,51.4,100,74,41,29.94,29.84,11,2,11,0.00
2014-5-22,78.8,68.0,60.1,68.6,62.8,55.9,100,84,60,29.91,29.80,12,2,13,0.05
2014-5-23,77.3,66.1,59.7,68.4,63.0,59.6,100,91,59,29.91,29.84,8,1,9,0.01
2014-5-24,76.6,63.2,52.5,61.4,53.8,45.6,100,75,38,29.94,29.86,8,1,8,0.00
2014-5-25,72.4,60.3,49.1,67.3,57.7,47.6,100,91,66,29.97,29.90,10,0,11,0.00
2014-5-26,79.0,63.7,54.7,69.5,61.1,54.7,100,93,52,30.00,29.92,8,1,8,0.03
2014-5-27,77.7,66.2,58.6,72.0,62.9,53.1,100,90,58,29.97,29.85,6,1,6,0.12
2014-5-28,80.3,66.2,55.9,71.1,60.0,51.2,100,83,43,29.90,29.82,7,1,7,0.01
2014-5-29,74.4,63.1,55.6,74.0,58.8,44.9,100,87,53,29.91,29.84,5,0,6,0.14
2014-5-30,73.6,64.1,58.7,73.2,60.0,47.8,100,87,60,29.91,29.86,5,0,5,0.01
2014-5-31,77.1,64.1,57.5,75.0,49.4,22.7,100,63,21,29.94,29.87,7,0,8,0.01
2014-6-1,68.5,68.5,68.5,65.8,65.8,65.8,91,91,91,29.98,29.98,4,4,4,0.00
2014-6-14,78.1,71.0,62.4,70.4,66.2,60.3,100,85,64,29.90,29.83,6,1,7,0.01
2014-6-15,81.1,67.8,58.6,77.4,54.5,-8.6,100,71,5,29.99,29.88,7,0,7,0.00
2014-6-16,77.6,68.3,63.5,76.4,54.1,-5.9,100,68,5,30.04,29.96,6,0,6,0.05
2014-6-17,85.5,70.8,60.1,75.4,48.0,-53.6,100,54,1,30.04,29.95,5,0,6,0.00
2014-6-18,82.0,68.3,61.6,77.7,48.9,-51.8,100,59,4,30.01,29.94,11,0,13,0.40
2014-6-19,84.4,67.1,61.2,78.1,54.0,15.5,100,66,15,29.99,29.92,5,0,5,0.02
2014-6-20,84.0,67.7,58.7,76.7,34.4,-54.2,100,43,1,29.95,29.83,7,1,7,0.01
2014-6-21,78.9,70.8,64.4,74.3,59.0,-37.3,99,82,5,29.83,29.74,8,1,8,0.02
2014-6-22,80.2,68.8,59.1,71.2,47.9,-57.3,100,59,1,29.81,29.73,7,1,7,0.01
2014-6-23,76.6,67.1,59.9,76.2,56.8,14.0,100,75,15,29.92,29.80,6,0,7,0.00
2014-6-24,73.8,66.2,59.8,71.9,16.2,-43.8,94,34,2,29.92,29.83,5,0,5,0.01
2014-6-25,77.4,68.4,63.8,74.5,62.5,32.0,100,83,30,29.88,29.80,10,1,10,0.00
2014-6-26,78.8,68.3,60.2,72.6,60.9,31.4,100,79,31,29.90,29.81,7,1,7,0.00
2014-6-27,76.8,68.5,62.6,76.2,58.5,20.2,100,75,18,29.95,29.84,7,0,7,0.01
2014-6-28,73.5,66.2,62.6,72.8,18.7,-45.0,99,29,1,30.02,29.93,6,0,6,0.00
2014-6-29,79.9,66.4,59.7,78.4,-3.1,-57.5,99,26,1,30.04,29.94,10,0,10,0.01
2014-6-30,76.1,66.3,59.0,74.8,4.3,-41.4,97,30,1,29.95,29.82,6,0,6,0.00
2014-7-1,86.0,71.4,60.5,80.6,22.8,-41.3,98,45,1,29.85,29.75,6,1,6,0.00
2014-7-2,85.5,73.0,63.8,80.5,64.4,42.5,99,75,42,29.85,29.79,6,1,6,0.00
2014-7-3,80.8,68.7,61.7,76.9,49.0,-49.9,100,69,1,29.88,29.80,11,1,11,0.00
2014-7-4,73.6,63.2,56.0,64.6,59.6,52.1,100,89,59,30.02,29.88,7,1,7,0.01
2014-7-5,76.6,62.5,49.4,68.0,55.3,26.5,100,79,39,30.07,29.99,7,1,7,0.00
2014-7-6,79.1,65.0,54.0,71.5,59.7,39.5,100,84,54,30.00,29.88,7,0,7,0.00
2014-7-7,80.6,69.1,58.6,72.2,60.8,17.9,100,77,18,29.90,29.80,6,1,6,0.00
2014-7-8,78.3,68.8,60.0,73.8,59.7,-38.2,100,83,3,29.88,29.80,11,2,11,0.00
2014-7-9,77.8,69.1,61.5,74.8,59.7,-55.2,100,84,1,29.89,29.81,12,1,12,0.00
2014-7-10,78.5,66.9,60.6,77.4,14.9,-40.5,98,41,3,29.95,29.84,6,0,6,0.00
2014-7-11,81.5,68.4,59.8,76.7,20.8,-57.4,97,48,1,30.03,29.93,7,0,7,0.00
2014-7-12,79.9,67.3,61.2,78.1,14.6,-56.1,96,35,1,30.04,29.97,10,0,10,0.00
2014-7-13,83.1,70.1,60.9,76.6,20.3,-40.3,96,44,13,29.99,29.88,6,0,7,0.00
2014-7-14,82.2,72.4,64.9,77.6,57.1,-54.2,97,67,1,29.89,29.76,8,1,9,0.00
2014-7-15,77.7,68.4,62.8,75.1,57.8,37.0,98,70,37,29.78,29.66,7,1,7,0.00
2014-7-16,73.0,62.7,53.9,64.4,55.0,27.4,100,77,34,29.81,29.71,8,1,8,0.00
2014-7-17,73.2,62.1,52.3,72.2,60.0,42.8,100,93,66,29.90,29.80,5,0,6,0.00
2014-7-18,64.6,60.5,58.3,60.7,-20.1,-41.8,99,15,2,29.96,29.90,2,0,2,0.00
2014-7-19,66.0,61.4,59.5,64.5,-39.4,-51.7,8,0,1,29.93,29.87,4,0,4,1.07
2014-7-20,76.7,64.6,57.9,73.9,-4.2,-48.2,94,20,1,29.91,29.84,5,0,5,0.00
2014-7-21,72.6,66.3,61.3,61.1,-13.9,-56.5,69,12,1,29.95,29.87,4,0,5,0.01
2014-7-22,76.6,68.0,62.7,75.1,12.1,-53.6,96,36,2,29.98,29.91,4,0,4,0.00
2014-7-23,76.7,67.2,62.2,75.5,-3.0,-39.6,96,25,3,29.96,29.81,6,0,7,0.10
2014-7-24,79.5,67.6,62.5,77.3,4.9,-39.3,95,28,2,29.83,29.75,7,1,7,0.09
2014-7-25,81.0,68.1,60.2,73.7,21.1,-43.4,98,40,2,29.88,29.80,6,1,6,0.00
2014-7-26,84.9,68.8,57.5,75.9,25.5,-52.5,98,48,1,29.89,29.81,4,1,4,0.00
2014-7-27,82.2,70.6,61.8,78.1,55.5,-48.1,98,73,18,29.87,29.72,12,1,12,0.69
2014-7-28,73.4,65.7,61.8,68.5,22.1,-39.7,98,51,23,29.79,29.71,14,2,14,0.74
2014-7-29,71.6,61.2,55.1,65.1,55.6,30.3,100,83,38,29.87,29.75,8,1,8,0.00
2014-7-30,73.9,58.9,47.9,69.8,41.6,-49.7,100,71,2,29.90,29.85,7,0,7,0.00
2014-7-31,66.5,60.2,54.6,63.7,21.6,-56.6,92,38,1,29.93,29.88,2,0,3,0.01
2014-8-1,71.2,63.5,58.4,70.4,10.1,-51.6,98,38,1,29.92,29.85,4,0,4,0.03
2014-8-2,70.2,62.8,58.1,58.3,-23.3,-52.9,73,7,1,29.93,29.87,5,0,5,0.10
2014-8-3,75.8,64.8,56.8,72.6,13.3,-42.8,97,42,20,29.94,29.87,6,1,6,0.00
2014-8-4,77.0,64.4,57.3,74.6,15.9,-57.3,97,37,1,29.94,29.86,5,0,5,0.00
2014-8-5,78.7,66.0,57.8,74.8,18.6,-42.2,98,48,7,29.91,29.85,6,1,6,0.00
2014-8-6,79.3,65.9,56.2,74.0,36.4,-55.9,97,54,1,29.89,29.82,6,0,6,0.00
2014-8-7,79.5,68.0,60.5,74.7,26.1,-40.6,97,50,1,29.88,29.81,6,0,6,0.00
2014-8-8,75.3,65.4,61.3,61.2,-8.4,-40.7,68,15,1,29.94,29.84,5,0,5,0.93
2014-8-9,81.6,69.0,63.0,78.7,-4.0,-48.7,95,23,2,29.88,29.81,5,0,6,0.01
2014-8-10,76.1,67.1,63.7,70.4,-21.5,-38.6,83,9,3,29.88,29.81,5,0,5,0.81
2014-8-11,81.0,67.8,62.7,77.7,-14.3,-48.8,92,16,1,29.87,29.76,8,0,8,0.09
2014-8-12,79.5,68.3,62.8,75.4,-7.2,-49.7,93,23,5,29.79,29.67,6,1,7,0.11
2014-8-13,69.5,61.6,55.8,66.9,13.7,-43.4,98,43,1,29.86,29.74,6,1,6,0.00
2014-8-14,77.7,62.0,51.1,71.3,17.2,-46.3,95,39,2,29.88,29.81,5,1,6,0.00
2014-8-15,77.2,63.4,54.0,72.5,14.3,-55.1,96,43,2,29.88,29.81,6,1,6,0.00
2014-8-16,76.7,63.7,54.0,73.4,13.2,-45.3,94,38,1,29.89,29.83,4,0,5,0.00
2014-8-17,77.8,67.7,60.5,74.2,22.1,-48.2,95,47,2,29.89,29.80,6,1,7,0.00
2014-8-18,76.7,68.8,64.9,73.9,17.3,-48.2,93,39,2,29.82,29.69,12,1,12,0.35
2014-8-19,77.1,67.9,61.4,74.8,6.4,-54.4,94,30,1,29.78,29.69,7,1,9,0.00
2014-8-20,83.0,67.3,59.3,79.5,-11.0,-54.7,92,18,1,29.99,29.78,18,1,18,0.05
2014-8-21,82.6,68.3,59.4,78.9,2.3,-49.2,92,27,1,29.98,29.90,5,1,5,0.01
2014-8-22,81.5,70.2,62.9,78.6,18.1,-56.4,92,32,4,29.96,29.85,4,1,4,0.00
2014-8-23,79.1,70.7,64.2,76.8,10.8,-49.9,93,33,3,29.88,29.79,6,1,6,0.00
2014-8-24,81.3,69.7,64.5,78.3,11.8,-52.7,91,32,1,29.90,29.79,7,0,7,0.00
2014-8-25,78.1,66.1,60.3,75.2,22.8,-50.8,93,40,3,29.94,29.86,5,0,6,0.00
2014-8-26,76.6,62.8,52.2,72.4,16.7,-52.2,94,40,3,29.97,29.89,7,1,7,0.00
2014-8-27,78.8,65.3,54.5,73.1,17.7,-44.2,93,43,8,29.94,29.86,5,1,5,0.00
2014-8-28,83.3,68.0,56.7,77.1,8.0,-44.6,91,32,2,29.91,29.84,4,0,4,0.01
2014-8-29,85.1,70.3,61.2,77.1,13.7,-40.1,92,35,6,29.96,29.88,5,0,5,0.02
2014-8-30,79.7,68.8,61.0,76.5,34.0,-40.3,92,50,6,30.00,29.92,5,0,5,0.00
2014-8-31,80.6,69.2,62.5,77.1,7.1,-52.8,90,28,1,29.98,29.92,6,1,6,0.19
2014-9-1,83.4,70.7,64.9,74.2,13.0,-54.9,91,30,1,29.97,29.91,7,1,7,0.00
2014-9-2,83.5,73.2,64.4,76.0,33.8,-50.4,91,47,2,29.94,29.82,7,1,8,0.00
2014-9-3,80.2,67.8,62.2,76.7,-7.8,-39.6,89,17,4,29.93,29.83,8,1,8,0.33
2014-9-4,72.3,66.6,63.2,-33.4,-36.8,-38.9,0,0,100,30.01,29.92,4,0,4,1.11
2014-9-5,75.5,67.2,61.9,-31.7,-36.5,-39.7,0,0,100,30.03,29.92,5,0,6,0.00
2014-9-6,77.1,66.7,60.9,34.8,-36.0,-40.3,22,0,3,29.94,29.82,4,0,4,0.10
2014-9-7,76.1,65.6,61.3,36.1,-37.1,-50.9,23,0,3,29.90,29.82,5,0,5,0.44
2014-9-8,76.5,65.7,62.2,32.5,-37.2,-39.6,21,0,21,29.93,29.85,5,0,5,0.24
2014-9-9,79.1,66.0,60.6,69.5,-29.4,-40.5,72,4,2,29.95,29.87,5,0,5,0.01
2014-9-10,76.4,65.2,58.8,68.0,-28.2,-41.6,77,5,14,29.93,29.84,4,0,4,0.00
2014-9-11,77.7,68.5,63.1,62.6,-30.6,-56.9,59,2,1,29.89,29.82,7,1,7,0.03
2014-9-12,80.2,68.7,64.0,73.4,-26.7,-41.8,81,5,2,29.91,29.83,5,0,5,0.46
2014-9-13,72.7,64.9,60.4,-33.3,-37.9,-40.7,0,0,100,29.98,29.85,6,1,6,0.00
2014-9-14,68.0,62.8,59.9,-36.1,-39.1,-40.9,0,0,100,30.00,29.94,5,0,5,0.05
2014-9-15,75.8,64.4,59.8,55.8,-35.4,-46.4,51,1,1,29.99,29.90,7,0,7,0.19
2014-9-16,74.3,64.5,58.7,-32.3,-38.1,-41.6,0,0,100,29.94,29.79,5,1,5,0.00
2014-9-17,74.3,63.0,58.3,65.9,-31.4,-42.4,76,5,2,29.81,29.70,6,0,6,0.00
2014-9-18,69.9,61.0,56.1,47.2,-36.0,-43.2,47,2,1,29.84,29.73,6,0,6,0.00
2014-9-19,71.8,60.6,55.2,44.3,-38.8,-56.9,38,1,3,29.98,29.84,6,0,7,0.00
2014-9-20,74.2,61.5,55.4,66.4,-19.6,-43.7,79,13,2,29.98,29.84,5,0,5,0.00
2014-9-21,73.9,61.4,51.4,63.8,-25.9,-54.5,71,9,14,29.87,29.71,8,1,8,0.06
2014-9-22,67.1,56.8,49.3,60.3,-8.7,-57.5,83,25,1,29.94,29.75,8,1,8,0.00
2014-9-23,66.5,52.4,41.6,51.5,-31.5,-52.1,59,7,3,30.03,29.94,4,0,4,0.00
2014-9-24,66.2,53.9,44.3,59.7,-16.3,-54.7,81,19,2,30.08,30.01,4,0,4,0.04
2014-9-25,69.3,60.2,54.9,-35.4,-40.7,-43.9,0,0,100,30.02,29.95,6,0,7,0.06
2014-9-26,70.6,61.3,57.4,-34.5,-40.1,-42.4,0,0,100,29.99,29.93,6,0,7,0.00
2014-9-27,70.9,60.2,55.5,69.2,-37.5,-47.5,38,1,3,29.99,29.92,6,0,6,0.00
2014-9-28,69.0,59.0,52.4,-35.4,-41.5,-45.5,0,0,100,29.97,29.88,4,0,4,0.00
2014-9-29,62.7,59.7,55.6,-39.2,-41.1,-43.5,0,0,100,29.88,29.77,5,0,5,0.16
2014-9-30,69.8,59.0,52.5,51.3,-40.7,-45.4,52,0,1,29.78,29.71,5,1,6,0.00
2014-10-1,71.9,59.1,49.0,61.4,-32.7,-52.5,72,5,1,29.86,29.75,5,0,6,0.00
2014-10-2,73.1,60.5,52.0,62.2,-31.6,-45.7,71,6,6,29.92,29.83,5,0,5,0.00
2014-10-3,70.3,63.3,58.4,-34.7,-38.9,-41.9,0,0,100,29.84,29.62,8,1,8,0.25
2014-10-4,58.3,46.4,36.7,40.5,-1.7,-55.2,81,36,2,29.67,29.57,8,2,8,0.00
2014-10-5,60.0,44.2,32.0,46.8,-0.6,-58.0,80,32,1,29.74,29.65,7,1,7,0.00
2014-10-6,64.2,52.5,46.4,53.7,-23.6,-49.1,71,13,1,29.82,29.72,7,1,7,0.16
2014-10-7,63.4,55.5,49.5,-38.8,-43.6,-47.3,0,0,100,29.86,29.76,8,1,9,0.46
2014-10-8,72.8,62.8,56.7,61.9,-10.5,-44.5,74,18,1,29.91,29.78,14,2,17,0.04
2014-10-9,72.3,58.3,49.4,62.1,-29.3,-47.4,73,8,4,29.95,29.89,8,1,8,0.03
2014-10-10,73.5,64.0,54.8,48.0,-34.9,-47.5,41,1,5,29.90,29.79,8,1,8,0.00
2014-10-11,71.5,64.8,59.3,47.3,-31.6,-41.3,43,2,1,29.86,29.75,10,2,10,0.00
2014-10-12,68.4,60.3,54.3,-35.8,-40.7,-44.4,0,0,100,29.93,29.81,5,1,5,0.06
2014-10-13,70.9,61.2,53.4,47.1,-32.2,-52.4,45,3,1,29.94,29.80,14,2,14,0.00
2014-10-14,65.3,60.1,51.5,-37.7,-40.8,-46.2,0,0,100,29.80,29.52,12,2,13,2.03
2014-10-15,56.8,49.1,44.6,44.1,-40.7,-50.3,66,4,1,29.64,29.59,10,1,10,0.05
2014-10-16,55.9,48.5,43.6,-43.3,-47.9,-50.9,0,0,100,29.69,29.54,7,1,7,0.02
2014-10-17,67.5,52.7,38.1,59.9,-7.2,-54.4,78,27,2,29.71,29.63,11,1,11,0.00
2014-10-18,61.4,53.3,44.9,54.0,-19.3,-55.0,79,17,1,29.77,29.61,15,2,16,0.00
2014-10-19,62.9,48.1,41.2,49.4,-4.2,-52.4,82,32,4,29.91,29.76,15,2,15,0.00
2014-10-20,65.3,50.9,41.7,53.4,-6.3,-52.1,80,27,2,29.84,29.73,7,1,8,0.01
2014-10-21,60.3,50.0,42.8,53.4,-6.8,-51.4,82,29,11,29.78,29.69,16,2,16,0.00
2014-10-22,50.5,43.4,39.7,45.6,-9.0,-57.9,83,29,1,29.89,29.76,11,2,13,0.00
2014-10-23,60.1,44.7,35.2,47.6,-6.8,-56.1,82,30,1,29.89,29.78,7,2,7,0.00
2014-10-24,63.0,47.4,36.2,48.7,-3.3,-55.6,84,31,1,29.83,29.75,7,1,8,0.00
2014-10-25,67.3,50.7,37.6,55.3,-0.6,-54.6,83,28,2,29.82,29.76,8,1,8,0.00
2014-10-26,69.6,57.4,51.5,58.4,1.0,-49.9,82,32,5,29.81,29.73,8,1,8,0.00
2014-10-27,77.4,59.1,46.0,56.0,33.6,-49.3,83,51,1,29.89,29.80,10,1,10,0.00
2014-10-28,72.3,62.5,56.0,61.8,24.1,-57.4,83,46,5,29.90,29.83,10,1,10,0.00
2014-10-29,59.1,52.3,41.6,49.7,-24.7,-52.2,86,14,1,29.83,29.76,11,2,12,0.01
2014-10-30,59.0,45.4,35.6,47.0,-1.2,-57.3,85,31,2,29.81,29.70,8,1,8,0.00
2014-10-31,50.9,39.3,30.6,45.8,-33.1,-57.9,84,13,9,29.72,29.55,14,1,14,0.11
2014-11-1,31.3,29.0,26.9,31.3,28.8,-53.0,9,0,9,29.86,29.51,18,5,18,0.00
2014-11-2,40.4,30.5,24.7,30.5,16.6,-54.6,93,58,2,30.05,29.84,22,4,22,0.06
2014-11-3,58.4,41.1,25.4,35.2,27.7,18.9,93,64,28,30.11,30.02,5,1,5,0.00
2014-11-4,67.5,53.4,40.0,45.6,31.8,23.5,87,48,21,30.05,29.92,8,1,8,0.00
2014-11-5,59.9,53.8,49.5,53.9,21.8,-47.5,82,43,1,30.00,29.85,7,1,7,0.00
2014-11-6,59.5,51.3,38.9,52.7,-0.6,-46.1,87,36,5,29.85,29.60,18,3,18,0.17
2014-11-7,46.7,38.2,32.5,40.5,13.9,-57.8,89,52,1,29.83,29.70,15,2,15,0.00
2014-11-8,58.5,42.9,30.9,44.0,10.5,-58.0,87,39,3,29.73,29.63,8,1,9,0.00
2014-11-9,59.2,45.1,32.8,48.8,21.9,-57.6,87,54,2,29.74,29.65,6,1,7,0.00
2014-11-10,67.0,48.3,37.0,48.3,39.2,17.7,90,72,37,29.80,29.73,5,1,5,0.00
2014-11-11,71.3,50.9,35.9,44.3,34.0,26.9,90,58,21,29.80,29.68,7,1,7,0.00
2014-11-12,64.8,50.6,41.8,59.4,-14.9,-52.1,86,24,4,29.80,29.72,10,1,11,0.00
2014-11-13,41.6,34.8,23.6,32.0,-29.0,-57.8,0,0,100,29.80,29.71,8,2,9,0.00
2014-11-14,26.2,20.7,16.2,24.8,13.9,-31.1,95,50,1,29.90,29.76,6,2,7,0.00
2014-11-15,42.0,26.6,14.0,31.6,16.1,-57.9,92,55,1,29.93,29.87,4,1,4,0.00
2014-11-16,51.4,39.2,28.1,43.0,10.0,-53.0,92,59,18,29.90,29.66,7,1,7,0.05
2014-11-17,54.4,40.4,19.0,31.7,-26.0,-57.9,0,0,100,29.66,29.41,21,3,21,0.63
2014-11-18,19.3,14.3,10.7,18.3,5.7,-49.4,98,66,6,29.87,29.64,10,2,10,0.00
2014-11-19,40.0,26.7,12.0,23.5,17.8,10.7,99,72,41,29.90,29.80,15,2,15,0.00
2014-11-20,47.1,38.5,33.1,35.8,28.9,23.3,88,69,45,29.86,29.75,17,4,17,0.00
2014-11-21,48.5,36.0,26.5,31.5,26.4,19.6,91,69,42,30.10,29.86,6,2,6,0.00
2014-11-22,54.6,41.4,30.2,44.2,28.4,-51.9,90,68,1,30.10,29.91,8,2,8,0.00
2014-11-23,56.7,48.0,39.6,32.9,-43.2,-51.6,76,3,1,29.92,29.39,21,2,21,0.94
2014-11-24,63.5,56.9,48.9,54.3,30.7,-54.1,85,54,6,29.69,29.42,18,4,23,0.00
2014-11-25,50.6,43.3,37.8,45.2,23.7,-55.4,90,55,1,29.81,29.69,7,1,8,0.00
2014-11-26,44.7,37.5,32.8,41.2,-10.7,-57.6,89,38,1,29.74,29.63,12,1,13,0.27
2014-11-27,33.6,29.2,22.0,32.0,18.4,-57.9,80,12,1,29.92,29.63,12,2,12,0.00
2014-11-28,37.5,28.0,18.4,31.1,19.8,-22.6,91,72,12,29.95,29.86,10,1,10,0.02
2014-11-29,51.5,42.5,29.7,47.0,34.7,7.1,92,75,22,29.90,29.84,16,2,17,0.00
2014-11-30,59.2,51.8,44.9,52.4,37.7,-48.7,90,62,8,30.02,29.85,21,4,21,0.00
2014-12-1,60.6,52.4,46.7,55.1,-17.1,-49.1,83,18,3,30.08,30.01,11,2,11,0.00
2014-12-2,62.1,54.1,48.8,57.2,-11.7,-51.4,87,23,1,30.03,29.94,7,1,8,0.01
2014-12-3,57.4,52.8,47.5,51.2,-15.5,-51.5,82,20,1,29.97,29.92,18,3,20,0.02
2014-12-4,58.9,49.8,43.0,51.0,-24.9,-57.6,77,14,1,30.03,29.95,6,1,6,0.00
2014-12-5,55.3,48.6,43.3,-43.7,-47.8,-51.0,0,0,100,30.07,29.97,5,1,6,0.05
2014-12-6,54.4,48.6,37.3,-44.2,-47.8,-54.9,0,0,100,29.97,29.77,18,2,18,0.27
2014-12-7,46.2,36.9,31.8,42.0,-16.2,-58.0,90,30,5,30.05,29.96,11,2,11,0.01
2014-12-8,37.8,32.9,28.9,34.5,12.9,-57.9,93,58,2,30.01,29.81,5,0,5,0.00
2014-12-9,35.9,31.6,27.9,32.1,0.5,-58.0,8,0,1,29.81,29.69,20,3,20,0.00
2014-12-10,32.4,29.2,24.6,30.3,13.5,-56.7,69,12,1,29.79,29.72,18,4,18,0.00
2014-12-11,37.1,26.7,22.1,32.7,18.6,-57.6,95,43,2,29.87,29.70,7,2,8,0.03
2014-12-12,45.8,32.8,23.0,28.0,20.5,6.2,95,63,29,29.97,29.86,5,1,5,0.00
2014-12-13,51.6,38.8,30.4,28.1,23.1,18.4,78,55,30,29.91,29.82,7,1,7,0.00
2014-12-14,54.7,39.1,28.3,31.5,26.1,20.3,92,62,29,29.82,29.75,7,1,8,0.00
2014-12-15,59.6,44.6,32.6,42.0,27.1,-50.8,86,54,6,29.77,29.70,6,1,6,0.02
2014-12-16,53.0,46.9,38.3,47.5,-3.3,-56.2,86,31,1,29.79,29.59,11,2,11,0.11
2014-12-17,46.8,37.4,32.2,43.2,-13.1,-57.9,93,36,1,29.86,29.77,7,2,8,0.00
2014-12-18,50.1,37.2,29.0,39.5,29.1,-48.7,94,71,5,29.85,29.73,10,1,10,0.00
2014-12-19,45.2,36.2,29.8,41.8,20.5,-57.9,90,54,1,29.84,29.77,6,1,6,0.00
2014-12-20,43.5,38.8,35.2,28.0,-38.5,-56.1,71,11,5,29.87,29.79,7,1,7,0.01
2014-12-21,48.1,38.7,35.0,43.7,-41.9,-57.7,72,7,1,29.89,29.78,5,0,5,0.00
2014-12-22,47.4,40.4,36.6,-48.6,-52.9,-55.2,0,0,100,29.79,29.61,6,1,6,0.06
2014-12-23,55.1,45.9,38.6,-43.8,-49.5,-53.9,0,0,100,29.69,29.55,16,2,16,0.79
2014-12-24,58.7,50.5,39.5,-16.6,-46.3,-53.4,7,0,3,29.56,29.37,14,2,16,0.54
2014-12-25,43.9,36.3,31.3,39.3,-20.3,-58.0,85,16,1,29.92,29.50,6,2,7,0.00
2014-12-26,52.6,38.2,27.0,34.3,23.9,-57.5,89,48,1,30.00,29.89,4,1,4,0.00
2014-12-27,58.1,49.1,38.2,38.5,28.0,20.5,86,46,24,30.00,29.86,6,1,6,0.00
2014-12-28,57.9,52.6,47.4,46.1,-35.5,-53.6,80,6,14,29.86,29.73,14,2,14,0.03
2014-12-29,52.9,47.0,41.9,-45.2,-48.8,-51.9,0,0,100,29.82,29.74,6,1,6,0.36
2014-12-30,41.9,36.1,30.0,32.0,-37.7,-58.0,0,0,100,30.03,29.79,7,2,7,0.00
2014-12-31,37.2,29.1,24.1,32.0,23.2,-57.9,87,11,2,30.05,29.95,5,1,5,0.00
2015-1-1,45.7,34.8,20.5,40.7,9.4,-52.4,88,28,1,29.96,29.86,11,2,13,0.00
2015-1-2,48.9,43.5,38.7,-47.6,-50.9,-53.9,0,0,100,30.00,29.90,8,1,8,0.13